Pagrindinis puslapis
METAR-TAF:

METAR-TAF

Oro uostai :

Leonardo da Vinčio-Fjumičino oro uostas

Roma-Fjumičinas, Italija

platuma: 41-48N, ilguma: 012-14E, Aukštis: 2 m

Dabartinis oras

Ataskaita buvo paskelbta 21 minutes, ne 18:20 UTC
Vėjas 5 kt iš Šiaurės/Šiaurės Rytų
Temperatūra 22°C
Drėgmė 69%
Slėgis 1015 hPa
Matomumas 10 km arba daugiau
nėra debesų žemiau 1500 m ir nėra kamuolinių lietaus debesų

METAR: LIRF 191820Z 03005KT CAVOK 22/16 Q1015 NOSIG

Laikas: 20:41 (18:41 UTC)

Prognozė

Ataskaita buvo paskelbta 1 valandą ir 41 minutes, ne 17:00 UTC
Prognozė galioja nuo 19 metu 18 UTC su 20 metu 24 UTC
Vėjas 8 kt iš Šiaurės/Šiaurės Rytų
Matomumas 10 km arba daugiau
Išsisklaidę debesys ne aukštis 3000 ft
Laikinai
nuo 19 metu 18 UTC su 19 metu 24 UTC
lietus
Tapsmas
nuo 20 metu 10 UTC su 20 metu 12 UTC
Vėjas 12 kt iš Pietvakarių
Tapsmas
nuo 20 metu 18 UTC su 20 metu 20 UTC
Vėjas 4 kt nuo kintamojo kryptimis

TAF: LIRF 191700Z 1918/2024 03008KT 9999 SCT030 TEMPO 1918/1924 RA BECMG 2010/2012 23012KT BECMG 2018/2020 VRB04KT

Orai ataskaitas ir orų prognozės (METAR, TAF).

turimą stotys yra geltonos ir raudonos taškus žemėlapyje.

Perkelti pele per norėdami pamatyti stoties vardą.

Tada spustelėkite, norėdami matyti oro stebėjimo ir prognozės.

Norėdami pakeisti žemėlapį: spustelėkite ant žalios mygtukų su juodo kryžiaus žemyn,; žalią mygtuką su brūkšneliu, jei norite nutolinti; arba žalių rodyklių gretimoms žemėlapius.


METAR-TAF: